sensor_id;sensor_type;location;lat;lon;timestamp;P1;durP1;ratioP1;P2;durP2;ratioP2
41221;SDS011;26952;42.884;23.918;2022-11-15T00:00:26;23.08;;;21.20;;
41221;SDS011;26952;42.884;23.918;2022-11-15T00:02:52;26.55;;;24.60;;
41221;SDS011;26952;42.884;23.918;2022-11-15T00:05:18;29.77;;;27.77;;
41221;SDS011;26952;42.884;23.918;2022-11-15T00:07:43;27.25;;;25.20;;
41221;SDS011;26952;42.884;23.918;2022-11-15T00:10:08;25.35;;;23.35;;
41221;SDS011;26952;42.884;23.918;2022-11-15T00:12:34;24.27;;;22.27;;
41221;SDS011;26952;42.884;23.918;2022-11-15T00:14:59;22.60;;;20.60;;
41221;SDS011;26952;42.884;23.918;2022-11-15T00:17:25;20.75;;;18.90;;
41221;SDS011;26952;42.884;23.918;2022-11-15T00:19:50;19.00;;;17.23;;
41221;SDS011;26952;42.884;23.918;2022-11-15T00:22:15;19.08;;;17.35;;
41221;SDS011;26952;42.884;23.918;2022-11-15T00:24:41;17.42;;;15.60;;
41221;SDS011;26952;42.884;23.918;2022-11-15T00:27:07;17.20;;;15.15;;
41221;SDS011;26952;42.884;23.918;2022-11-15T00:29:33;16.73;;;15.00;;
41221;SDS011;26952;42.884;23.918;2022-11-15T00:31:58;16.42;;;14.73;;
41221;SDS011;26952;42.884;23.918;2022-11-15T00:34:24;15.80;;;13.85;;
41221;SDS011;26952;42.884;23.918;2022-11-15T00:36:49;16.30;;;14.75;;
41221;SDS011;26952;42.884;23.918;2022-11-15T00:39:14;19.83;;;18.08;;
41221;SDS011;26952;42.884;23.918;2022-11-15T00:41:40;20.52;;;18.77;;
41221;SDS011;26952;42.884;23.918;2022-11-15T00:44:05;20.85;;;19.15;;
41221;SDS011;26952;42.884;23.918;2022-11-15T00:46:30;21.67;;;19.95;;
41221;SDS011;26952;42.884;23.918;2022-11-15T00:48:56;19.63;;;17.80;;
41221;SDS011;26952;42.884;23.918;2022-11-15T00:51:21;19.70;;;18.00;;
41221;SDS011;26952;42.884;23.918;2022-11-15T00:53:47;18.50;;;16.88;;
41221;SDS011;26952;42.884;23.918;2022-11-15T00:56:12;16.15;;;14.73;;
41221;SDS011;26952;42.884;23.918;2022-11-15T00:58:37;14.65;;;13.20;;
41221;SDS011;26952;42.884;23.918;2022-11-15T01:01:07;13.85;;;12.45;;
41221;SDS011;26952;42.884;23.918;2022-11-15T01:03:37;15.57;;;13.98;;
41221;SDS011;26952;42.884;23.918;2022-11-15T01:06:04;16.38;;;14.77;;
41221;SDS011;26952;42.884;23.918;2022-11-15T01:08:30;14.70;;;13.38;;
41221;SDS011;26952;42.884;23.918;2022-11-15T01:11:00;13.30;;;11.90;;
41221;SDS011;26952;42.884;23.918;2022-11-15T01:13:29;14.52;;;12.85;;
41221;SDS011;26952;42.884;23.918;2022-11-15T01:15:56;14.77;;;13.48;;
41221;SDS011;26952;42.884;23.918;2022-11-15T01:18:22;16.48;;;15.05;;
41221;SDS011;26952;42.884;23.918;2022-11-15T01:20:47;15.05;;;13.73;;
41221;SDS011;26952;42.884;23.918;2022-11-15T01:23:12;18.52;;;16.88;;
41221;SDS011;26952;42.884;23.918;2022-11-15T01:25:38;19.98;;;18.40;;
41221;SDS011;26952;42.884;23.918;2022-11-15T01:28:03;19.17;;;17.58;;
41221;SDS011;26952;42.884;23.918;2022-11-15T01:30:29;17.27;;;15.90;;
41221;SDS011;26952;42.884;23.918;2022-11-15T01:32:54;16.38;;;14.80;;
41221;SDS011;26952;42.884;23.918;2022-11-15T01:35:19;16.67;;;15.23;;
41221;SDS011;26952;42.884;23.918;2022-11-15T01:37:46;15.02;;;13.70;;
41221;SDS011;26952;42.884;23.918;2022-11-15T01:40:11;14.45;;;13.25;;
41221;SDS011;26952;42.884;23.918;2022-11-15T01:42:37;13.77;;;12.55;;
41221;SDS011;26952;42.884;23.918;2022-11-15T01:45:02;14.32;;;12.93;;
41221;SDS011;26952;42.884;23.918;2022-11-15T01:47:31;13.63;;;12.20;;
41221;SDS011;26952;42.884;23.918;2022-11-15T01:50:03;13.23;;;12.02;;
41221;SDS011;26952;42.884;23.918;2022-11-15T01:52:33;13.57;;;12.45;;
41221;SDS011;26952;42.884;23.918;2022-11-15T01:57:47;12.00;;;10.80;;
41221;SDS011;26952;42.884;23.918;2022-11-15T02:00:16;13.02;;;11.82;;
41221;SDS011;26952;42.884;23.918;2022-11-15T02:02:41;12.80;;;11.60;;
41221;SDS011;26952;42.884;23.918;2022-11-15T02:05:07;14.18;;;12.88;;
41221;SDS011;26952;42.884;23.918;2022-11-15T02:07:34;13.02;;;11.68;;
41221;SDS011;26952;42.884;23.918;2022-11-15T02:10:07;13.52;;;12.40;;
41221;SDS011;26952;42.884;23.918;2022-11-15T02:12:35;14.55;;;13.13;;
41221;SDS011;26952;42.884;23.918;2022-11-15T02:15:01;16.52;;;15.20;;
41221;SDS011;26952;42.884;23.918;2022-11-15T02:20:46;14.43;;;13.13;;
41221;SDS011;26952;42.884;23.918;2022-11-15T02:28:50;12.82;;;11.65;;
41221;SDS011;26952;42.884;23.918;2022-11-15T02:37:05;12.38;;;11.10;;
41221;SDS011;26952;42.884;23.918;2022-11-15T02:40:01;11.25;;;10.10;;
41221;SDS011;26952;42.884;23.918;2022-11-15T02:42:49;13.07;;;11.68;;
41221;SDS011;26952;42.884;23.918;2022-11-15T02:45:44;12.90;;;10.70;;
41221;SDS011;26952;42.884;23.918;2022-11-15T02:48:13;12.77;;;11.52;;
41221;SDS011;26952;42.884;23.918;2022-11-15T02:50:40;13.95;;;12.60;;
41221;SDS011;26952;42.884;23.918;2022-11-15T02:53:07;14.80;;;13.38;;
41221;SDS011;26952;42.884;23.918;2022-11-15T02:55:34;14.70;;;13.25;;
41221;SDS011;26952;42.884;23.918;2022-11-15T03:04:11;13.52;;;12.30;;
41221;SDS011;26952;42.884;23.918;2022-11-15T03:07:03;14.88;;;13.75;;
41221;SDS011;26952;42.884;23.918;2022-11-15T03:09:39;15.55;;;14.30;;
41221;SDS011;26952;42.884;23.918;2022-11-15T03:12:12;16.05;;;14.70;;
41221;SDS011;26952;42.884;23.918;2022-11-15T03:14:49;14.25;;;13.15;;
41221;SDS011;26952;42.884;23.918;2022-11-15T03:17:35;12.18;;;11.07;;
41221;SDS011;26952;42.884;23.918;2022-11-15T03:20:08;11.88;;;10.85;;
41221;SDS011;26952;42.884;23.918;2022-11-15T03:22:38;11.38;;;10.40;;
41221;SDS011;26952;42.884;23.918;2022-11-15T03:25:08;10.30;;;8.77;;
41221;SDS011;26952;42.884;23.918;2022-11-15T03:27:38;10.63;;;9.68;;
41221;SDS011;26952;42.884;23.918;2022-11-15T03:30:09;10.55;;;9.38;;
41221;SDS011;26952;42.884;23.918;2022-11-15T03:32:36;11.70;;;10.40;;
41221;SDS011;26952;42.884;23.918;2022-11-15T03:35:08;11.32;;;10.23;;
41221;SDS011;26952;42.884;23.918;2022-11-15T03:37:41;11.98;;;10.95;;
41221;SDS011;26952;42.884;23.918;2022-11-15T03:40:13;10.98;;;10.07;;
41221;SDS011;26952;42.884;23.918;2022-11-15T03:42:46;11.63;;;10.52;;
41221;SDS011;26952;42.884;23.918;2022-11-15T03:45:27;11.07;;;10.00;;
41221;SDS011;26952;42.884;23.918;2022-11-15T03:47:58;11.57;;;10.57;;
41221;SDS011;26952;42.884;23.918;2022-11-15T03:50:27;10.73;;;9.82;;
41221;SDS011;26952;42.884;23.918;2022-11-15T03:52:54;11.20;;;10.18;;
41221;SDS011;26952;42.884;23.918;2022-11-15T03:55:21;12.90;;;11.82;;
41221;SDS011;26952;42.884;23.918;2022-11-15T03:57:50;12.23;;;11.13;;
41221;SDS011;26952;42.884;23.918;2022-11-15T04:00:19;12.90;;;11.73;;
41221;SDS011;26952;42.884;23.918;2022-11-15T04:02:44;13.07;;;11.98;;
41221;SDS011;26952;42.884;23.918;2022-11-15T04:05:10;11.77;;;10.75;;
41221;SDS011;26952;42.884;23.918;2022-11-15T04:07:35;12.30;;;11.30;;
41221;SDS011;26952;42.884;23.918;2022-11-15T04:10:01;14.27;;;13.23;;
41221;SDS011;26952;42.884;23.918;2022-11-15T04:12:32;14.98;;;13.85;;
41221;SDS011;26952;42.884;23.918;2022-11-15T04:15:03;18.13;;;16.80;;
41221;SDS011;26952;42.884;23.918;2022-11-15T04:17:34;15.43;;;14.32;;
41221;SDS011;26952;42.884;23.918;2022-11-15T04:20:03;16.45;;;15.25;;
41221;SDS011;26952;42.884;23.918;2022-11-15T04:22:52;16.90;;;15.63;;
41221;SDS011;26952;42.884;23.918;2022-11-15T04:25:36;13.48;;;12.63;;
41221;SDS011;26952;42.884;23.918;2022-11-15T04:28:02;12.88;;;11.88;;
41221;SDS011;26952;42.884;23.918;2022-11-15T04:30:27;10.93;;;9.82;;
41221;SDS011;26952;42.884;23.918;2022-11-15T04:32:52;11.00;;;10.05;;
41221;SDS011;26952;42.884;23.918;2022-11-15T04:35:18;10.75;;;9.75;;
41221;SDS011;26952;42.884;23.918;2022-11-15T04:37:43;10.65;;;9.65;;
41221;SDS011;26952;42.884;23.918;2022-11-15T04:40:09;12.18;;;11.18;;
41221;SDS011;26952;42.884;23.918;2022-11-15T04:42:34;11.68;;;10.65;;
41221;SDS011;26952;42.884;23.918;2022-11-15T04:45:00;11.18;;;10.35;;
41221;SDS011;26952;42.884;23.918;2022-11-15T04:47:25;13.38;;;12.43;;
41221;SDS011;26952;42.884;23.918;2022-11-15T04:49:52;13.15;;;12.10;;
41221;SDS011;26952;42.884;23.918;2022-11-15T04:52:18;12.10;;;11.02;;
41221;SDS011;26952;42.884;23.918;2022-11-15T04:54:43;11.30;;;10.40;;
41221;SDS011;26952;42.884;23.918;2022-11-15T04:57:09;10.52;;;9.65;;
41221;SDS011;26952;42.884;23.918;2022-11-15T04:59:35;10.63;;;9.73;;
41221;SDS011;26952;42.884;23.918;2022-11-15T05:02:00;9.48;;;8.68;;
41221;SDS011;26952;42.884;23.918;2022-11-15T05:04:25;9.93;;;8.90;;
41221;SDS011;26952;42.884;23.918;2022-11-15T05:06:51;9.63;;;8.73;;
41221;SDS011;26952;42.884;23.918;2022-11-15T05:09:17;9.75;;;8.57;;
41221;SDS011;26952;42.884;23.918;2022-11-15T05:11:43;8.45;;;7.68;;
41221;SDS011;26952;42.884;23.918;2022-11-15T05:14:09;9.43;;;8.60;;
41221;SDS011;26952;42.884;23.918;2022-11-15T05:16:34;10.70;;;9.50;;
41221;SDS011;26952;42.884;23.918;2022-11-15T05:19:00;9.63;;;8.48;;
41221;SDS011;26952;42.884;23.918;2022-11-15T05:21:26;10.82;;;9.77;;
41221;SDS011;26952;42.884;23.918;2022-11-15T05:23:51;10.10;;;9.15;;
41221;SDS011;26952;42.884;23.918;2022-11-15T05:26:17;10.90;;;9.88;;
41221;SDS011;26952;42.884;23.918;2022-11-15T05:28:43;10.77;;;9.75;;
41221;SDS011;26952;42.884;23.918;2022-11-15T05:31:10;10.98;;;9.27;;
41221;SDS011;26952;42.884;23.918;2022-11-15T05:33:37;11.13;;;10.13;;
41221;SDS011;26952;42.884;23.918;2022-11-15T05:36:05;11.02;;;10.02;;
41221;SDS011;26952;42.884;23.918;2022-11-15T05:38:31;9.10;;;8.18;;
41221;SDS011;26952;42.884;23.918;2022-11-15T05:40:58;8.93;;;8.10;;
41221;SDS011;26952;42.884;23.918;2022-11-15T05:43:25;10.07;;;9.13;;
41221;SDS011;26952;42.884;23.918;2022-11-15T05:45:51;8.75;;;7.95;;
41221;SDS011;26952;42.884;23.918;2022-11-15T05:48:16;9.05;;;8.25;;
41221;SDS011;26952;42.884;23.918;2022-11-15T05:50:43;9.80;;;8.80;;
41221;SDS011;26952;42.884;23.918;2022-11-15T05:53:11;10.13;;;9.13;;
41221;SDS011;26952;42.884;23.918;2022-11-15T05:55:40;11.07;;;9.05;;
41221;SDS011;26952;42.884;23.918;2022-11-15T05:58:06;9.73;;;8.95;;
41221;SDS011;26952;42.884;23.918;2022-11-15T06:00:32;9.98;;;9.07;;
41221;SDS011;26952;42.884;23.918;2022-11-15T06:02:57;9.77;;;8.98;;
41221;SDS011;26952;42.884;23.918;2022-11-15T06:05:23;10.13;;;9.20;;
41221;SDS011;26952;42.884;23.918;2022-11-15T06:07:49;10.30;;;9.40;;
41221;SDS011;26952;42.884;23.918;2022-11-15T06:10:14;10.82;;;9.95;;
41221;SDS011;26952;42.884;23.918;2022-11-15T06:12:40;10.60;;;9.60;;
41221;SDS011;26952;42.884;23.918;2022-11-15T06:15:05;10.20;;;9.30;;
41221;SDS011;26952;42.884;23.918;2022-11-15T06:17:31;11.55;;;10.63;;
41221;SDS011;26952;42.884;23.918;2022-11-15T06:19:56;10.60;;;9.60;;
41221;SDS011;26952;42.884;23.918;2022-11-15T06:22:22;9.80;;;8.85;;
41221;SDS011;26952;42.884;23.918;2022-11-15T06:24:47;10.25;;;9.32;;
41221;SDS011;26952;42.884;23.918;2022-11-15T06:27:13;10.35;;;9.32;;
41221;SDS011;26952;42.884;23.918;2022-11-15T06:29:39;10.55;;;9.45;;
41221;SDS011;26952;42.884;23.918;2022-11-15T06:32:04;10.90;;;9.95;;
41221;SDS011;26952;42.884;23.918;2022-11-15T06:34:30;10.88;;;9.82;;
41221;SDS011;26952;42.884;23.918;2022-11-15T06:36:55;12.27;;;11.25;;
41221;SDS011;26952;42.884;23.918;2022-11-15T06:39:21;11.43;;;10.43;;
41221;SDS011;26952;42.884;23.918;2022-11-15T06:41:46;13.73;;;12.52;;
41221;SDS011;26952;42.884;23.918;2022-11-15T06:44:11;14.52;;;13.23;;
41221;SDS011;26952;42.884;23.918;2022-11-15T06:46:37;21.00;;;19.52;;
41221;SDS011;26952;42.884;23.918;2022-11-15T06:49:02;23.20;;;21.65;;
41221;SDS011;26952;42.884;23.918;2022-11-15T06:51:28;24.83;;;23.27;;
41221;SDS011;26952;42.884;23.918;2022-11-15T06:53:53;24.60;;;22.95;;
41221;SDS011;26952;42.884;23.918;2022-11-15T06:56:19;21.35;;;19.98;;
41221;SDS011;26952;42.884;23.918;2022-11-15T06:58:44;21.40;;;20.00;;
41221;SDS011;26952;42.884;23.918;2022-11-15T07:01:10;22.35;;;20.85;;
41221;SDS011;26952;42.884;23.918;2022-11-15T07:03:37;22.80;;;21.17;;
41221;SDS011;26952;42.884;23.918;2022-11-15T07:06:04;26.13;;;24.33;;
41221;SDS011;26952;42.884;23.918;2022-11-15T07:08:31;24.02;;;22.23;;
41221;SDS011;26952;42.884;23.918;2022-11-15T07:11:00;22.20;;;20.60;;
41221;SDS011;26952;42.884;23.918;2022-11-15T07:13:27;23.08;;;21.48;;
41221;SDS011;26952;42.884;23.918;2022-11-15T07:15:54;22.58;;;21.05;;
41221;SDS011;26952;42.884;23.918;2022-11-15T07:18:20;18.83;;;17.63;;
41221;SDS011;26952;42.884;23.918;2022-11-15T07:20:45;17.67;;;16.52;;
41221;SDS011;26952;42.884;23.918;2022-11-15T07:23:11;18.48;;;17.25;;
41221;SDS011;26952;42.884;23.918;2022-11-15T07:25:36;15.95;;;14.85;;
41221;SDS011;26952;42.884;23.918;2022-11-15T07:28:02;15.35;;;14.15;;
41221;SDS011;26952;42.884;23.918;2022-11-15T07:30:28;14.70;;;13.60;;
41221;SDS011;26952;42.884;23.918;2022-11-15T07:32:57;14.23;;;13.13;;
41221;SDS011;26952;42.884;23.918;2022-11-15T07:35:25;13.95;;;12.77;;
41221;SDS011;26952;42.884;23.918;2022-11-15T07:37:53;13.52;;;12.23;;
41221;SDS011;26952;42.884;23.918;2022-11-15T07:40:19;13.23;;;12.20;;
41221;SDS011;26952;42.884;23.918;2022-11-15T07:42:45;12.35;;;11.35;;
41221;SDS011;26952;42.884;23.918;2022-11-15T07:45:21;12.88;;;11.90;;
41221;SDS011;26952;42.884;23.918;2022-11-15T07:47:48;14.25;;;13.07;;
41221;SDS011;26952;42.884;23.918;2022-11-15T07:50:15;13.23;;;12.13;;
41221;SDS011;26952;42.884;23.918;2022-11-15T07:52:41;13.25;;;12.25;;
41221;SDS011;26952;42.884;23.918;2022-11-15T07:55:07;13.77;;;12.50;;
41221;SDS011;26952;42.884;23.918;2022-11-15T07:57:33;16.92;;;15.52;;
41221;SDS011;26952;42.884;23.918;2022-11-15T07:59:58;16.42;;;15.10;;
41221;SDS011;26952;42.884;23.918;2022-11-15T08:02:24;18.13;;;16.63;;
41221;SDS011;26952;42.884;23.918;2022-11-15T08:04:49;17.42;;;16.00;;
41221;SDS011;26952;42.884;23.918;2022-11-15T08:07:15;18.20;;;16.70;;
41221;SDS011;26952;42.884;23.918;2022-11-15T08:09:40;18.85;;;17.35;;
41221;SDS011;26952;42.884;23.918;2022-11-15T08:12:06;17.67;;;16.38;;
41221;SDS011;26952;42.884;23.918;2022-11-15T08:14:32;18.50;;;17.10;;
41221;SDS011;26952;42.884;23.918;2022-11-15T08:16:57;20.95;;;19.40;;
41221;SDS011;26952;42.884;23.918;2022-11-15T08:19:23;21.83;;;20.23;;
41221;SDS011;26952;42.884;23.918;2022-11-15T08:21:48;19.10;;;17.50;;
41221;SDS011;26952;42.884;23.918;2022-11-15T08:24:14;20.58;;;18.92;;
41221;SDS011;26952;42.884;23.918;2022-11-15T08:26:39;20.48;;;19.02;;
41221;SDS011;26952;42.884;23.918;2022-11-15T08:29:05;18.75;;;17.17;;
41221;SDS011;26952;42.884;23.918;2022-11-15T08:31:32;14.95;;;13.82;;
41221;SDS011;26952;42.884;23.918;2022-11-15T08:33:58;15.95;;;14.63;;
41221;SDS011;26952;42.884;23.918;2022-11-15T08:36:23;14.13;;;12.82;;
41221;SDS011;26952;42.884;23.918;2022-11-15T08:38:48;15.05;;;13.60;;
41221;SDS011;26952;42.884;23.918;2022-11-15T08:41:16;14.10;;;12.77;;
41221;SDS011;26952;42.884;23.918;2022-11-15T08:43:49;13.10;;;11.90;;
41221;SDS011;26952;42.884;23.918;2022-11-15T08:46:14;14.38;;;13.02;;
41221;SDS011;26952;42.884;23.918;2022-11-15T08:48:40;16.10;;;14.63;;
41221;SDS011;26952;42.884;23.918;2022-11-15T08:51:05;14.48;;;13.18;;
41221;SDS011;26952;42.884;23.918;2022-11-15T08:53:31;15.75;;;14.30;;
41221;SDS011;26952;42.884;23.918;2022-11-15T08:55:56;15.38;;;13.98;;
41221;SDS011;26952;42.884;23.918;2022-11-15T08:58:22;15.85;;;14.48;;
41221;SDS011;26952;42.884;23.918;2022-11-15T09:00:47;18.63;;;17.13;;
41221;SDS011;26952;42.884;23.918;2022-11-15T09:37:37;17.45;;;15.85;;
41221;SDS011;26952;42.884;23.918;2022-11-15T09:40:02;21.75;;;20.23;;
41221;SDS011;26952;42.884;23.918;2022-11-15T09:42:52;20.30;;;18.63;;
41221;SDS011;26952;42.884;23.918;2022-11-15T09:51:09;19.15;;;17.45;;
41221;SDS011;26952;42.884;23.918;2022-11-15T09:53:55;19.15;;;17.33;;
41221;SDS011;26952;42.884;23.918;2022-11-15T09:56:32;18.23;;;16.52;;
41221;SDS011;26952;42.884;23.918;2022-11-15T10:07:42;16.65;;;15.02;;
41221;SDS011;26952;42.884;23.918;2022-11-15T10:19:13;27.23;;;25.13;;
41221;SDS011;26952;42.884;23.918;2022-11-15T10:24:35;23.67;;;21.88;;
41221;SDS011;26952;42.884;23.918;2022-11-15T10:27:09;23.40;;;21.35;;
41221;SDS011;26952;42.884;23.918;2022-11-15T10:29:40;25.98;;;23.38;;
41221;SDS011;26952;42.884;23.918;2022-11-15T10:32:09;22.42;;;20.23;;
41221;SDS011;26952;42.884;23.918;2022-11-15T10:37:04;15.10;;;13.02;;
41221;SDS011;26952;42.884;23.918;2022-11-15T10:39:29;14.45;;;12.43;;
41221;SDS011;26952;42.884;23.918;2022-11-15T10:41:55;14.18;;;12.75;;
41221;SDS011;26952;42.884;23.918;2022-11-15T10:49:20;17.83;;;16.20;;
41221;SDS011;26952;42.884;23.918;2022-11-15T10:51:51;16.13;;;14.63;;
41221;SDS011;26952;42.884;23.918;2022-11-15T10:57:17;17.38;;;15.85;;
41221;SDS011;26952;42.884;23.918;2022-11-15T10:59:46;17.17;;;15.82;;
41221;SDS011;26952;42.884;23.918;2022-11-15T11:04:55;19.38;;;17.55;;
41221;SDS011;26952;42.884;23.918;2022-11-15T11:07:22;17.38;;;15.77;;
41221;SDS011;26952;42.884;23.918;2022-11-15T11:12:45;16.45;;;15.13;;
41221;SDS011;26952;42.884;23.918;2022-11-15T11:15:14;16.60;;;15.15;;
41221;SDS011;26952;42.884;23.918;2022-11-15T11:17:49;15.85;;;14.32;;
41221;SDS011;26952;42.884;23.918;2022-11-15T11:20:32;16.40;;;15.00;;
41221;SDS011;26952;42.884;23.918;2022-11-15T11:29:02;18.43;;;16.83;;
41221;SDS011;26952;42.884;23.918;2022-11-15T11:34:31;16.98;;;15.52;;
41221;SDS011;26952;42.884;23.918;2022-11-15T11:37:24;15.50;;;14.00;;
41221;SDS011;26952;42.884;23.918;2022-11-15T11:40:13;16.00;;;14.70;;
41221;SDS011;26952;42.884;23.918;2022-11-15T11:51:16;15.23;;;14.15;;
41221;SDS011;26952;42.884;23.918;2022-11-15T11:53:57;24.42;;;22.75;;
41221;SDS011;26952;42.884;23.918;2022-11-15T11:56:29;22.25;;;20.50;;
41221;SDS011;26952;42.884;23.918;2022-11-15T12:01:38;24.67;;;22.98;;
41221;SDS011;26952;42.884;23.918;2022-11-15T12:07:08;20.55;;;18.90;;
41221;SDS011;26952;42.884;23.918;2022-11-15T12:12:27;22.80;;;20.85;;
41221;SDS011;26952;42.884;23.918;2022-11-15T12:15:10;21.52;;;19.95;;
41221;SDS011;26952;42.884;23.918;2022-11-15T12:17:40;17.00;;;15.40;;
41221;SDS011;26952;42.884;23.918;2022-11-15T12:20:14;22.40;;;20.70;;
41221;SDS011;26952;42.884;23.918;2022-11-15T12:22:53;21.45;;;19.80;;
41221;SDS011;26952;42.884;23.918;2022-11-15T12:25:22;19.77;;;18.05;;
41221;SDS011;26952;42.884;23.918;2022-11-15T12:30:54;23.25;;;21.30;;
41221;SDS011;26952;42.884;23.918;2022-11-15T12:33:33;22.60;;;20.75;;
41221;SDS011;26952;42.884;23.918;2022-11-15T12:36:01;27.70;;;25.70;;
41221;SDS011;26952;42.884;23.918;2022-11-15T12:41:16;34.38;;;32.10;;
41221;SDS011;26952;42.884;23.918;2022-11-15T12:43:44;29.10;;;27.02;;
41221;SDS011;26952;42.884;23.918;2022-11-15T12:46:13;25.10;;;23.08;;
41221;SDS011;26952;42.884;23.918;2022-11-15T12:51:04;18.25;;;16.65;;
41221;SDS011;26952;42.884;23.918;2022-11-15T12:53:30;16.98;;;15.38;;
41221;SDS011;26952;42.884;23.918;2022-11-15T13:01:08;28.63;;;26.45;;
41221;SDS011;26952;42.884;23.918;2022-11-15T13:03:34;26.83;;;24.77;;
41221;SDS011;26952;42.884;23.918;2022-11-15T13:06:01;29.08;;;26.80;;
41221;SDS011;26952;42.884;23.918;2022-11-15T13:09:02;28.30;;;25.95;;
41221;SDS011;26952;42.884;23.918;2022-11-15T13:11:41;28.90;;;26.50;;
41221;SDS011;26952;42.884;23.918;2022-11-15T13:17:02;20.90;;;18.80;;
41221;SDS011;26952;42.884;23.918;2022-11-15T13:19:40;23.58;;;18.50;;
41221;SDS011;26952;42.884;23.918;2022-11-15T13:22:09;21.20;;;19.10;;
41221;SDS011;26952;42.884;23.918;2022-11-15T13:24:53;22.88;;;20.42;;
41221;SDS011;26952;42.884;23.918;2022-11-15T13:27:20;22.75;;;20.42;;
41221;SDS011;26952;42.884;23.918;2022-11-15T13:29:45;25.05;;;22.80;;
41221;SDS011;26952;42.884;23.918;2022-11-15T13:32:11;27.92;;;25.40;;
41221;SDS011;26952;42.884;23.918;2022-11-15T13:34:38;28.85;;;26.25;;
41221;SDS011;26952;42.884;23.918;2022-11-15T13:37:32;31.92;;;29.02;;
41221;SDS011;26952;42.884;23.918;2022-11-15T13:40:20;30.35;;;27.55;;
41221;SDS011;26952;42.884;23.918;2022-11-15T13:42:46;27.48;;;24.98;;
41221;SDS011;26952;42.884;23.918;2022-11-15T13:45:16;27.05;;;24.63;;
41221;SDS011;26952;42.884;23.918;2022-11-15T13:47:43;27.42;;;24.85;;
41221;SDS011;26952;42.884;23.918;2022-11-15T13:50:12;25.90;;;23.40;;
41221;SDS011;26952;42.884;23.918;2022-11-15T13:52:38;27.70;;;25.00;;
41221;SDS011;26952;42.884;23.918;2022-11-15T13:55:15;27.60;;;25.00;;
41221;SDS011;26952;42.884;23.918;2022-11-15T13:57:44;25.55;;;23.02;;
41221;SDS011;26952;42.884;23.918;2022-11-15T14:05:41;26.95;;;24.33;;
41221;SDS011;26952;42.884;23.918;2022-11-15T14:08:21;30.80;;;27.95;;
41221;SDS011;26952;42.884;23.918;2022-11-15T14:10:48;28.40;;;25.60;;
41221;SDS011;26952;42.884;23.918;2022-11-15T14:13:31;26.80;;;24.13;;
41221;SDS011;26952;42.884;23.918;2022-11-15T14:16:18;27.85;;;25.15;;
41221;SDS011;26952;42.884;23.918;2022-11-15T14:18:50;26.73;;;23.85;;
41221;SDS011;26952;42.884;23.918;2022-11-15T14:21:18;24.75;;;22.35;;
41221;SDS011;26952;42.884;23.918;2022-11-15T14:23:44;26.17;;;23.52;;
41221;SDS011;26952;42.884;23.918;2022-11-15T14:28:53;27.88;;;25.10;;
41221;SDS011;26952;42.884;23.918;2022-11-15T14:31:18;27.95;;;25.05;;
41221;SDS011;26952;42.884;23.918;2022-11-15T14:33:45;29.58;;;26.58;;
41221;SDS011;26952;42.884;23.918;2022-11-15T14:36:12;30.77;;;27.65;;
41221;SDS011;26952;42.884;23.918;2022-11-15T14:38:40;28.50;;;25.70;;
41221;SDS011;26952;42.884;23.918;2022-11-15T14:41:28;28.02;;;25.05;;
41221;SDS011;26952;42.884;23.918;2022-11-15T14:43:57;27.45;;;24.65;;
41221;SDS011;26952;42.884;23.918;2022-11-15T14:46:23;29.90;;;26.73;;
41221;SDS011;26952;42.884;23.918;2022-11-15T14:48:48;30.40;;;27.10;;
41221;SDS011;26952;42.884;23.918;2022-11-15T14:51:15;37.15;;;28.05;;
41221;SDS011;26952;42.884;23.918;2022-11-15T14:53:42;29.45;;;26.33;;
41221;SDS011;26952;42.884;23.918;2022-11-15T14:56:08;32.88;;;29.48;;
41221;SDS011;26952;42.884;23.918;2022-11-15T14:58:34;35.15;;;31.55;;
41221;SDS011;26952;42.884;23.918;2022-11-15T15:01:00;34.75;;;31.15;;
41221;SDS011;26952;42.884;23.918;2022-11-15T15:03:27;36.20;;;32.63;;
41221;SDS011;26952;42.884;23.918;2022-11-15T15:05:53;35.72;;;32.13;;
41221;SDS011;26952;42.884;23.918;2022-11-15T15:08:19;35.70;;;32.22;;
41221;SDS011;26952;42.884;23.918;2022-11-15T15:10:44;35.00;;;31.58;;
41221;SDS011;26952;42.884;23.918;2022-11-15T15:13:19;37.65;;;33.92;;
41221;SDS011;26952;42.884;23.918;2022-11-15T15:15:47;36.90;;;32.97;;
41221;SDS011;26952;42.884;23.918;2022-11-15T15:18:13;34.50;;;30.63;;
41221;SDS011;26952;42.884;23.918;2022-11-15T15:20:40;34.72;;;31.08;;
41221;SDS011;26952;42.884;23.918;2022-11-15T15:23:18;34.67;;;30.98;;
41221;SDS011;26952;42.884;23.918;2022-11-15T15:25:45;34.92;;;31.08;;
41221;SDS011;26952;42.884;23.918;2022-11-15T15:28:13;33.80;;;30.30;;
41221;SDS011;26952;42.884;23.918;2022-11-15T15:30:38;35.10;;;31.33;;
41221;SDS011;26952;42.884;23.918;2022-11-15T15:33:04;36.65;;;32.70;;
41221;SDS011;26952;42.884;23.918;2022-11-15T15:35:30;39.13;;;34.08;;
41221;SDS011;26952;42.884;23.918;2022-11-15T15:37:58;35.97;;;32.13;;
41221;SDS011;26952;42.884;23.918;2022-11-15T15:40:24;34.33;;;30.75;;
41221;SDS011;26952;42.884;23.918;2022-11-15T15:42:50;33.92;;;30.48;;
41221;SDS011;26952;42.884;23.918;2022-11-15T15:45:16;34.35;;;30.73;;
41221;SDS011;26952;42.884;23.918;2022-11-15T15:47:43;36.95;;;33.03;;
41221;SDS011;26952;42.884;23.918;2022-11-15T15:50:21;38.25;;;33.28;;
41221;SDS011;26952;42.884;23.918;2022-11-15T15:52:47;39.63;;;32.65;;
41221;SDS011;26952;42.884;23.918;2022-11-15T15:55:14;39.08;;;34.40;;
41221;SDS011;26952;42.884;23.918;2022-11-15T15:57:40;37.92;;;33.88;;
41221;SDS011;26952;42.884;23.918;2022-11-15T16:00:05;38.08;;;32.92;;
41221;SDS011;26952;42.884;23.918;2022-11-15T16:02:31;39.78;;;34.08;;
41221;SDS011;26952;42.884;23.918;2022-11-15T16:04:57;41.20;;;36.30;;
41221;SDS011;26952;42.884;23.918;2022-11-15T16:07:22;43.55;;;35.70;;
41221;SDS011;26952;42.884;23.918;2022-11-15T16:09:50;38.28;;;34.28;;
41221;SDS011;26952;42.884;23.918;2022-11-15T16:12:26;42.95;;;37.70;;
41221;SDS011;26952;42.884;23.918;2022-11-15T16:14:52;46.72;;;41.67;;
41221;SDS011;26952;42.884;23.918;2022-11-15T16:17:18;52.10;;;40.80;;
41221;SDS011;26952;42.884;23.918;2022-11-15T16:19:46;41.10;;;36.60;;
41221;SDS011;26952;42.884;23.918;2022-11-15T16:22:12;43.50;;;35.70;;
41221;SDS011;26952;42.884;23.918;2022-11-15T16:24:37;38.97;;;34.00;;
41221;SDS011;26952;42.884;23.918;2022-11-15T16:27:03;41.97;;;34.20;;
41221;SDS011;26952;42.884;23.918;2022-11-15T16:29:28;36.45;;;32.80;;
41221;SDS011;26952;42.884;23.918;2022-11-15T16:31:54;31.27;;;27.02;;
41221;SDS011;26952;42.884;23.918;2022-11-15T16:34:20;32.28;;;27.30;;
41221;SDS011;26952;42.884;23.918;2022-11-15T16:36:46;28.95;;;24.88;;
41221;SDS011;26952;42.884;23.918;2022-11-15T16:39:11;30.02;;;24.25;;
41221;SDS011;26952;42.884;23.918;2022-11-15T16:41:38;27.60;;;23.30;;
41221;SDS011;26952;42.884;23.918;2022-11-15T16:44:04;29.00;;;23.80;;
41221;SDS011;26952;42.884;23.918;2022-11-15T16:46:30;26.27;;;23.40;;
41221;SDS011;26952;42.884;23.918;2022-11-15T16:48:55;27.17;;;23.75;;